Time;durP1;ratioP1;P1;durP2;ratioP2;P2;SDS_P1;SDS_P2;PMS_P1;PMS_P2;Temp;Humidity;BMP_temperature;BMP_pressure;BME280_temperature;BME280_humidity;BME280_pressure;Samples;Min_cycle;Max_cycle;Signal;HPM_P1;HPM_P2
2023/01/21 04:02:33;;;;;;;;;;;;;;;;;;5175727;23;19940;-70
2023/01/21 04:05:01;;;;;;;;;;;-3.90;99.90;;;;;;4969609;28;20432;-72
2023/01/21 04:07:28;;;;;;;;;;;-3.90;99.90;;;;;;4967568;28;19997;-71
2023/01/21 04:09:54;;;;;;;;;;;-3.90;99.90;;;;;;4969158;28;20476;-74
2023/01/21 04:12:21;;;;;;;;;;;-3.90;99.90;;;;;;4969335;28;19934;-72
2023/01/21 04:14:47;;;;;;;;;;;-3.90;99.90;;;;;;4967302;28;20013;-73
2023/01/21 04:17:14;;;;;;;;;;;-3.90;99.90;;;;;;4969192;28;20012;-71
2023/01/21 04:19:41;;;;;;;;;;;-3.90;99.90;;;;;;4969440;28;20021;-73
2023/01/21 04:22:09;;;;;;;;;;;-3.90;99.90;;;;;;4968828;28;20017;-72
2023/01/21 04:24:35;;;;;;;;;;;-4.00;99.90;;;;;;4979547;28;19969;-71
2023/01/21 04:27:02;;;;;;;;;;;-4.00;99.90;;;;;;4970624;28;20001;-71
2023/01/21 04:29:28;;;;;;;;;;;-4.00;99.90;;;;;;4969612;28;19969;-72
2023/01/21 04:31:55;;;;;;;;;;;-4.10;99.90;;;;;;4970523;28;19926;-72
2023/01/21 04:34:22;;;;;;;;;;;-4.10;99.90;;;;;;4972002;28;20371;-73
2023/01/21 04:36:48;;;;;;;;;;;-4.20;99.90;;;;;;4971846;28;20020;-72
2023/01/21 04:39:16;;;;;;;;;;;-4.30;99.90;;;;;;4967127;28;19926;-72
2023/01/21 04:41:43;;;;;;;;;;;-4.30;99.90;;;;;;4966854;28;20028;-74
2023/01/21 04:44:09;;;;;;;;;;;-4.40;99.90;;;;;;4970307;28;20427;-72
2023/01/21 04:46:36;;;;;;;;;;;-4.30;99.90;;;;;;4973243;28;20032;-73
2023/01/21 04:49:02;;;;;;;;;;;-4.20;99.90;;;;;;4970446;28;19926;-72
2023/01/21 04:51:29;;;;;;;;;;;-4.20;99.90;;;;;;4973914;28;20038;-75
2023/01/21 04:53:56;;;;;;;;;;;-4.20;99.90;;;;;;4973677;28;20304;-71
2023/01/21 04:56:24;;;;;;;;;;;-4.00;99.90;;;;;;4973818;28;20024;-72
2023/01/21 04:58:50;;;;;;;;;;;-3.90;99.90;;;;;;4973341;28;19977;-69
2023/01/21 05:01:17;;;;;;;;;;;-3.90;99.90;;;;;;4973525;28;19954;-73
2023/01/21 05:03:44;;;;;;;;;;;-4.00;99.90;;;;;;4970018;28;19973;-72
2023/01/21 05:06:10;;;;;;;;;;;-4.00;99.90;;;;;;4973651;28;19970;-73
2023/01/21 05:08:37;;;;;;;;;;;-4.00;99.90;;;;;;4973645;28;19972;-72
2023/01/21 05:11:04;;;;;;;;;;;-4.00;99.90;;;;;;4973584;28;20455;-72
2023/01/21 05:13:32;;;;;;;;;;;-4.10;99.90;;;;;;4973991;28;19977;-75
2023/01/21 05:16:02;;;;;;;;;;;-4.10;99.90;;;;;;4973234;28;19977;-73
2023/01/21 05:18:29;;;;;;;;;;;-4.10;99.90;;;;;;4972762;28;20397;-71
2023/01/21 05:20:56;;;;;;;;;;;-4.10;99.90;;;;;;4973030;28;19934;-71
2023/01/21 05:23:22;;;;;;;;;;;-4.00;99.90;;;;;;4971488;28;19985;-71
2023/01/21 05:25:49;;;;;;;;;;;-3.90;99.90;;;;;;4973323;28;19930;-72
2023/01/21 05:28:16;;;;;;;;;;;-4.00;99.90;;;;;;4973108;28;19927;-70
2023/01/21 05:30:44;;;;;;;;;;;-4.10;99.90;;;;;;4972589;28;19932;-73
2023/01/21 05:33:11;;;;;;;;;;;-4.10;99.90;;;;;;4972813;28;19977;-71
2023/01/21 05:35:37;;;;;;;;;;;-4.10;99.90;;;;;;4968044;28;19926;-74
2023/01/21 05:38:04;;;;;;;;;;;-4.20;99.90;;;;;;4973121;28;19926;-73
2023/01/21 05:40:31;;;;;;;;;;;-4.20;99.90;;;;;;4968082;28;20005;-72
2023/01/21 05:42:58;;;;;;;;;;;-4.30;99.90;;;;;;4973152;28;19926;-73
2023/01/21 05:45:24;;;;;;;;;;;-4.30;99.90;;;;;;4973028;28;19949;-72
2023/01/21 05:47:53;;;;;;;;;;;-4.30;99.90;;;;;;4971316;28;19930;-74
2023/01/21 05:50:19;;;;;;;;;;;-4.30;99.90;;;;;;4967741;28;20397;-73
2023/01/21 05:52:46;;;;;;;;;;;-4.30;99.90;;;;;;4972862;28;19926;-75
2023/01/21 05:55:13;;;;;;;;;;;-4.40;99.90;;;;;;4972908;28;19973;-72
2023/01/21 05:57:40;;;;;;;;;;;-4.50;99.90;;;;;;4972839;28;19930;-71
2023/01/21 06:00:07;;;;;;;;;;;-4.60;99.90;;;;;;4971646;28;19930;-72
2023/01/21 06:02:34;;;;;;;;;;;-4.60;99.90;;;;;;4965185;28;20009;-73
2023/01/21 06:05:02;;;;;;;;;;;-4.60;99.90;;;;;;4972401;28;19969;-72
2023/01/21 06:07:29;;;;;;;;;;;-4.60;99.90;;;;;;4972774;28;19941;-73
2023/01/21 06:09:55;;;;;;;;;;;-4.60;99.90;;;;;;4969861;28;19973;-72
2023/01/21 06:12:22;;;;;;;;;;;-4.60;99.90;;;;;;4972195;28;20427;-72
2023/01/21 06:14:49;;;;;;;;;;;-4.70;99.90;;;;;;4969527;28;19930;-73
2023/01/21 06:17:16;;;;;;;;;;;-4.70;99.90;;;;;;4988498;28;20345;-72
2023/01/21 06:19:42;;;;;;;;;;;-4.70;99.90;;;;;;4970222;28;19930;-71
2023/01/21 06:22:13;;;;;;;;;;;-4.70;99.90;;;;;;4971195;28;19982;-74
2023/01/21 06:24:40;;;;;;;;;;;-4.70;99.90;;;;;;4972381;28;19973;-74
2023/01/21 06:27:06;;;;;;;;;;;-4.70;99.90;;;;;;4969427;28;19934;-73
2023/01/21 06:29:33;;;;;;;;;;;-4.70;99.90;;;;;;4968416;28;19926;-72
2023/01/21 06:32:00;;;;;;;;;;;-4.70;99.90;;;;;;4972139;28;19926;-72
2023/01/21 06:34:27;;;;;;;;;;;-4.60;99.90;;;;;;4972353;28;20405;-73
2023/01/21 06:36:53;;;;;;;;;;;-4.50;99.90;;;;;;4972374;28;19969;-72
2023/01/21 06:39:21;;;;;;;;;;;-4.50;99.90;;;;;;4962218;28;19970;-71
2023/01/21 06:41:48;;;;;;;;;;;-4.50;99.90;;;;;;4987903;28;19930;-72
2023/01/21 06:44:15;;;;;;;;;;;-4.50;99.90;;;;;;4971496;28;19934;-71
2023/01/21 06:46:42;;;;;;;;;;;-4.50;99.90;;;;;;4972208;28;19961;-72
2023/01/21 06:49:09;;;;;;;;;;;-4.50;99.90;;;;;;4971289;28;19993;-76
2023/01/21 06:51:35;;;;;;;;;;;-4.50;99.90;;;;;;4965575;28;19969;-72
2023/01/21 06:54:04;;;;;;;;;;;-4.60;99.90;;;;;;4955471;28;20055;-71
2023/01/21 06:56:32;;;;;;;;;;;-4.60;99.90;;;;;;4968201;28;19978;-71
2023/01/21 06:58:59;;;;;;;;;;;-4.70;99.90;;;;;;4970837;28;19934;-72
2023/01/21 07:01:26;;;;;;;;;;;-4.60;99.90;;;;;;4971577;28;19930;-73
2023/01/21 07:03:52;;;;;;;;;;;-4.70;99.90;;;;;;4968140;28;19926;-72
2023/01/21 07:06:20;;;;;;;;;;;-4.60;99.90;;;;;;4969968;28;20360;-71
2023/01/21 07:08:47;;;;;;;;;;;-4.60;99.90;;;;;;4970184;28;20319;-72
2023/01/21 07:11:14;;;;;;;;;;;-4.60;99.90;;;;;;4971602;28;20277;-72
2023/01/21 07:13:42;;;;;;;;;;;-4.60;99.90;;;;;;4971527;28;19965;-72
2023/01/21 07:16:09;;;;;;;;;;;-4.70;99.90;;;;;;4971498;28;20397;-71
2023/01/21 07:18:36;;;;;;;;;;;-4.70;99.90;;;;;;4968502;28;19930;-72
2023/01/21 07:21:02;;;;;;;;;;;-4.80;99.90;;;;;;4970993;28;20289;-73
2023/01/21 07:23:29;;;;;;;;;;;-4.80;99.90;;;;;;4970962;28;19930;-73
2023/01/21 07:25:56;;;;;;;;;;;-4.80;99.90;;;;;;4971612;28;19926;-72
2023/01/21 07:28:23;;;;;;;;;;;-4.80;99.90;;;;;;4970396;28;20400;-71
2023/01/21 07:30:51;;;;;;;;;;;-4.80;99.90;;;;;;4970898;28;19930;-72
2023/01/21 07:33:18;;;;;;;;;;;-4.80;99.90;;;;;;4970238;28;20388;-76
2023/01/21 07:35:45;;;;;;;;;;;-4.80;99.90;;;;;;4970841;28;19977;-74
2023/01/21 07:38:12;;;;;;;;;;;-4.80;99.90;;;;;;4969702;28;19977;-72
2023/01/21 07:40:38;;;;;;;;;;;-4.80;99.90;;;;;;4968300;28;19926;-75
2023/01/21 07:43:05;;;;;;;;;;;-4.80;99.90;;;;;;4970216;28;19930;-75
2023/01/21 07:45:32;;;;;;;;;;;-4.80;99.90;;;;;;4970645;28;19926;-74
2023/01/21 07:48:00;;;;;;;;;;;-4.90;99.90;;;;;;4968739;28;20459;-71
2023/01/21 07:50:27;;;;;;;;;;;-4.90;99.90;;;;;;4966250;28;20351;-71
2023/01/21 07:52:54;;;;;;;;;;;-4.80;99.90;;;;;;4970717;28;19992;-73
2023/01/21 07:55:21;;;;;;;;;;;-4.90;99.90;;;;;;4963522;28;19926;-70
2023/01/21 07:57:48;;;;;;;;;;;-4.80;99.90;;;;;;4962510;28;19934;-71
2023/01/21 08:00:15;;;;;;;;;;;-4.80;99.90;;;;;;4970144;28;20360;-71
2023/01/21 08:02:42;;;;;;;;;;;-4.70;99.90;;;;;;4965991;28;20409;-72
2023/01/21 08:05:10;;;;;;;;;;;-4.60;99.90;;;;;;4970583;28;19930;-71
2023/01/21 08:07:37;;;;;;;;;;;-4.60;99.90;;;;;;4967351;28;19930;-71
2023/01/21 08:10:04;;;;;;;;;;;-4.50;99.90;;;;;;4969360;28;19957;-69
2023/01/21 08:12:31;;;;;;;;;;;-4.50;99.90;;;;;;4968484;28;20441;-72
2023/01/21 08:14:57;;;;;;;;;;;-4.40;99.90;;;;;;4970764;28;19927;-71
2023/01/21 08:17:24;;;;;;;;;;;-4.40;99.90;;;;;;4963614;28;19926;-72
2023/01/21 08:19:51;;;;;;;;;;;-4.40;99.90;;;;;;4969497;28;19988;-72
2023/01/21 08:22:19;;;;;;;;;;;-4.30;99.90;;;;;;4970398;28;20345;-73
2023/01/21 08:24:46;;;;;;;;;;;-4.30;99.90;;;;;;4974320;28;19926;-71
2023/01/21 08:27:12;;;;;;;;;;;-4.30;99.90;;;;;;4966910;28;19926;-70
2023/01/21 08:29:39;;;;;;;;;;;-4.30;99.90;;;;;;4970573;28;19933;-71
2023/01/21 08:32:06;;;;;;;;;;;-4.30;99.90;;;;;;4972444;28;19976;-72
2023/01/21 08:34:33;;;;;;;;;;;-4.20;99.90;;;;;;4974074;28;20042;-71
2023/01/21 08:37:00;;;;;;;;;;;-4.00;99.90;;;;;;4970724;28;19926;-73
2023/01/21 08:39:28;;;;;;;;;;;-3.90;99.90;;;;;;4972232;28;20438;-71
2023/01/21 08:41:55;;;;;;;;;;;-3.80;99.90;;;;;;4974066;28;19926;-71
2023/01/21 08:44:22;;;;;;;;;;;-3.70;99.90;;;;;;4973932;28;19969;-72
2023/01/21 08:46:48;;;;;;;;;;;-3.70;99.90;;;;;;4973468;28;19933;-72
2023/01/21 08:49:15;;;;;;;;;;;-3.60;99.90;;;;;;4973167;28;19934;-73
2023/01/21 08:51:42;;;;;;;;;;;-3.50;99.90;;;;;;4966747;28;19926;-71
2023/01/21 08:54:09;;;;;;;;;;;-3.40;99.90;;;;;;4966957;28;19930;-71
2023/01/21 08:56:37;;;;;;;;;;;-3.30;99.90;;;;;;4971238;28;19977;-72
2023/01/21 08:59:04;;;;;;;;;;;-3.10;99.90;;;;;;4967113;28;19926;-70
2023/01/21 09:01:32;;;;;;;;;;;-3.00;99.90;;;;;;4964576;28;19930;-72
2023/01/21 09:03:59;;;;;;;;;;;-2.80;99.90;;;;;;4970553;28;19926;-72
2023/01/21 09:06:27;;;;;;;;;;;-2.70;99.90;;;;;;4971874;28;19926;-72
2023/01/21 09:08:54;;;;;;;;;;;-2.50;99.90;;;;;;4967454;28;19926;-71
2023/01/21 09:11:21;;;;;;;;;;;-2.40;99.90;;;;;;4973501;28;19934;-71
2023/01/21 09:13:50;;;;;;;;;;;-2.30;99.90;;;;;;4969662;28;19926;-72
2023/01/21 09:16:17;;;;;;;;;;;-2.20;99.90;;;;;;4970679;28;19958;-72
2023/01/21 09:18:44;;;;;;;;;;;-2.00;99.90;;;;;;4972422;28;20336;-74
2023/01/21 09:21:11;;;;;;;;;;;-1.90;99.90;;;;;;4967242;28;19930;-70
2023/01/21 09:23:38;;;;;;;;;;;-1.80;99.90;;;;;;4970216;28;20412;-71
2023/01/21 09:26:06;;;;;;;;;;;-1.70;99.90;;;;;;4971899;28;20046;-72
2023/01/21 09:28:36;;;;;;;;;;;-1.60;99.90;;;;;;4969994;28;19927;-77
2023/01/21 09:31:05;;;;;;;;;;;-1.50;99.90;;;;;;4968980;28;19926;-73
2023/01/21 09:33:33;;;;;;;;;;;-1.40;99.90;;;;;;4972542;28;19930;-69
2023/01/21 09:36:00;;;;;;;;;;;-1.30;99.90;;;;;;4968757;28;20460;-71
2023/01/21 09:38:27;;;;;;;;;;;-1.30;99.90;;;;;;4971799;28;19926;-73
2023/01/21 09:40:55;;;;;;;;;;;-1.40;99.90;;;;;;4971574;28;19930;-72
2023/01/21 09:43:24;;;;;;;;;;;-1.50;99.90;;;;;;4972588;28;19993;-73
2023/01/21 09:45:53;;;;;;;;;;;-1.60;99.90;;;;;;4972971;28;19981;-70
2023/01/21 09:48:26;;;;;;;;;;;-1.70;99.90;;;;;;4983128;28;19926;-70
2023/01/21 09:50:53;;;;;;;;;;;-1.60;99.90;;;;;;4968216;28;19926;-75
2023/01/21 09:53:26;;;;;;;;;;;-1.50;99.90;;;;;;4973253;28;19981;-70
2023/01/21 09:55:53;;;;;;;;;;;-1.30;99.90;;;;;;4971769;28;19927;-71
2023/01/21 09:58:22;;;;;;;;;;;-1.20;99.90;;;;;;4969129;28;19948;-70
2023/01/21 10:00:52;;;;;;;;;;;-1.20;99.90;;;;;;4971764;28;19926;-72
2023/01/21 10:03:25;;;;;;;;;;;-1.10;99.90;;;;;;4970921;28;19926;-72
2023/01/21 10:06:04;;;;;;;;;;;-1.00;99.90;;;;;;4986139;28;19978;-70
2023/01/21 10:08:34;;;;;;;;;;;-1.00;99.90;;;;;;4967391;28;20296;-70
2023/01/21 10:11:06;;;;;;;;;;;-0.90;99.90;;;;;;4967766;28;19926;-72
2023/01/21 10:13:40;;;;;;;;;;;-0.80;99.90;;;;;;4962824;28;19927;-71
2023/01/21 10:16:09;;;;;;;;;;;-0.70;99.90;;;;;;4973601;28;19934;-70
2023/01/21 10:18:39;;;;;;;;;;;-0.70;99.90;;;;;;4961756;28;20341;-71
2023/01/21 10:21:10;;;;;;;;;;;-0.70;99.90;;;;;;4972940;28;19981;-69
2023/01/21 10:23:41;;;;;;;;;;;-0.60;99.90;;;;;;4966917;28;19976;-70
2023/01/21 10:26:09;;;;;;;;;;;-0.60;99.90;;;;;;4972938;28;20004;-71
2023/01/21 10:28:39;;;;;;;;;;;-0.50;99.90;;;;;;4972618;28;19926;-70
2023/01/21 10:31:07;;;;;;;;;;;-0.50;99.90;;;;;;4972738;28;19930;-69
2023/01/21 10:33:34;;;;;;;;;;;-0.50;99.90;;;;;;4973246;28;19932;-69
2023/01/21 10:36:10;;;;;;;;;;;-0.40;99.90;;;;;;4970675;28;19926;-70
2023/01/21 10:38:40;;;;;;;;;;;-0.40;99.90;;;;;;4967592;28;19958;-70
2023/01/21 10:41:10;;;;;;;;;;;-0.30;99.90;;;;;;4971095;28;19926;-71
2023/01/21 10:43:40;;;;;;;;;;;-0.10;99.90;;;;;;4982740;28;19926;-69
2023/01/21 10:46:14;;;;;;;;;;;0.00;99.90;;;;;;4971317;28;19926;-71
2023/01/21 10:48:44;;;;;;;;;;;0.10;99.90;;;;;;4972230;28;20309;-72
2023/01/21 10:51:16;;;;;;;;;;;0.10;99.90;;;;;;4972363;28;20396;-71
2023/01/21 10:53:46;;;;;;;;;;;0.10;99.90;;;;;;4969444;28;20408;-69
2023/01/21 10:56:17;;;;;;;;;;;0.20;99.90;;;;;;4972502;28;19930;-70
2023/01/21 10:58:46;;;;;;;;;;;0.30;99.90;;;;;;4971271;28;19926;-70
2023/01/21 11:01:16;;;;;;;;;;;0.40;99.90;;;;;;4967645;28;19930;-70
2023/01/21 11:03:44;;;;;;;;;;;0.40;99.90;;;;;;4972235;28;19992;-70
2023/01/21 11:06:13;;;;;;;;;;;0.40;99.90;;;;;;4972092;28;19926;-66
2023/01/21 11:08:43;;;;;;;;;;;0.50;99.90;;;;;;4967988;28;19926;-71
2023/01/21 11:11:11;;;;;;;;;;;0.50;99.90;;;;;;4969983;28;19926;-70
2023/01/21 11:13:40;;;;;;;;;;;0.50;99.90;;;;;;4968185;28;20402;-72
2023/01/21 11:16:07;;;;;;;;;;;0.60;99.90;;;;;;4968370;28;19926;-70
2023/01/21 11:18:36;;;;;;;;;;;0.60;99.90;;;;;;4971506;28;20324;-71
2023/01/21 11:21:04;;;;;;;;;;;0.70;99.90;;;;;;4970348;28;19988;-70
2023/01/21 11:23:31;;;;;;;;;;;0.70;99.90;;;;;;4964939;28;19949;-70
2023/01/21 11:26:04;;;;;;;;;;;0.70;99.90;;;;;;4966502;28;20444;-70
2023/01/21 11:28:31;;;;;;;;;;;0.70;99.90;;;;;;4964132;28;19926;-71
2023/01/21 11:31:07;;;;;;;;;;;0.60;99.90;;;;;;4968652;28;19926;-71
2023/01/21 11:33:34;;;;;;;;;;;0.60;99.90;;;;;;4966673;28;19961;-70
2023/01/21 11:36:09;;;;;;;;;;;0.70;99.90;;;;;;4970087;28;19926;-70
2023/01/21 11:38:36;;;;;;;;;;;0.60;99.90;;;;;;4970865;28;19934;-70
2023/01/21 11:41:06;;;;;;;;;;;0.70;99.90;;;;;;4971079;28;19985;-71
2023/01/21 11:43:33;;;;;;;;;;;0.70;99.90;;;;;;4968811;28;19926;-71
2023/01/21 11:46:00;;;;;;;;;;;0.70;99.90;;;;;;4970258;28;19926;-72
2023/01/21 11:48:27;;;;;;;;;;;0.80;99.90;;;;;;4969622;28;19934;-73
2023/01/21 11:51:05;;;;;;;;;;;0.80;99.90;;;;;;4971200;28;20286;-75
2023/01/21 11:53:32;;;;;;;;;;;0.90;99.90;;;;;;4970331;28;19981;-73
2023/01/21 11:56:00;;;;;;;;;;;0.90;99.90;;;;;;4976002;28;19973;-73
2023/01/21 11:58:31;;;;;;;;;;;1.00;99.90;;;;;;4976263;28;20363;-74
2023/01/21 12:00:59;;;;;;;;;;;1.00;99.90;;;;;;4977727;28;19930;-73
2023/01/21 12:03:29;;;;;;;;;;;1.00;99.90;;;;;;4976765;28;19962;-73
2023/01/21 12:05:55;;;;;;;;;;;1.00;99.90;;;;;;4976620;28;19926;-71
2023/01/21 12:08:23;;;;;;;;;;;1.10;99.90;;;;;;4975133;28;19926;-73
2023/01/21 12:10:51;;;;;;;;;;;1.10;99.90;;;;;;4976099;28;19938;-70
2023/01/21 12:13:19;;;;;;;;;;;1.10;99.90;;;;;;4976543;28;20455;-71
2023/01/21 12:16:08;;;;;;;;;;;1.10;99.90;;;;;;4968808;28;19926;-72
2023/01/21 12:18:42;;;;;;;;;;;1.10;99.90;;;;;;4974115;28;19933;-73
2023/01/21 12:21:16;;;;;;;;;;;1.10;99.90;;;;;;4977153;28;19945;-71
2023/01/21 12:23:49;;;;;;;;;;;1.10;99.90;;;;;;4974812;28;19954;-73
2023/01/21 12:26:22;;;;;;;;;;;1.10;99.90;;;;;;4974042;28;19973;-72
2023/01/21 12:28:57;;;;;;;;;;;1.10;99.90;;;;;;4976496;28;20033;-74
2023/01/21 12:31:28;;;;;;;;;;;1.10;99.90;;;;;;4976041;28;19930;-72
2023/01/21 12:33:59;;;;;;;;;;;1.10;99.90;;;;;;4971109;28;19934;-70
2023/01/21 12:36:29;;;;;;;;;;;1.10;99.90;;;;;;4975251;28;19972;-73
2023/01/21 12:39:06;;;;;;;;;;;1.10;99.90;;;;;;4974348;28;19933;-71
2023/01/21 12:41:34;;;;;;;;;;;1.10;99.90;;;;;;4970077;28;20022;-72
2023/01/21 12:44:05;;;;;;;;;;;1.10;99.90;;;;;;4976145;28;19993;-72
2023/01/21 12:46:36;;;;;;;;;;;1.20;99.90;;;;;;4974044;28;19958;-74
2023/01/21 12:49:04;;;;;;;;;;;1.20;99.90;;;;;;4975695;28;20385;-72
2023/01/21 12:51:34;;;;;;;;;;;1.20;99.90;;;;;;4976060;28;20400;-71
2023/01/21 12:54:04;;;;;;;;;;;1.20;99.90;;;;;;4974031;28;19934;-71
2023/01/21 12:56:33;;;;;;;;;;;1.30;99.90;;;;;;4973180;28;19931;-71
2023/01/21 12:59:02;;;;;;;;;;;1.20;99.90;;;;;;4975388;28;19973;-71
2023/01/21 13:01:33;;;;;;;;;;;1.30;99.90;;;;;;4976385;28;19957;-71
2023/01/21 13:04:04;;;;;;;;;;;1.30;99.90;;;;;;4975552;28;20447;-71
2023/01/21 13:06:35;;;;;;;;;;;1.30;99.90;;;;;;4974021;28;19985;-71
2023/01/21 13:09:04;;;;;;;;;;;1.30;99.90;;;;;;4972448;28;20016;-71
2023/01/21 13:11:34;;;;;;;;;;;1.30;99.90;;;;;;4967493;28;20436;-71
2023/01/21 13:14:16;;;;;;;;;;;1.30;99.90;;;;;;4969381;28;19930;-72
2023/01/21 13:16:46;;;;;;;;;;;1.30;99.90;;;;;;4972059;28;20306;-69
2023/01/21 13:19:14;;;;;;;;;;;1.30;99.90;;;;;;4968016;28;19954;-72
2023/01/21 13:21:43;;;;;;;;;;;1.40;99.90;;;;;;4971514;28;20408;-71
2023/01/21 13:24:15;;;;;;;;;;;1.40;99.90;;;;;;4972462;28;19926;-72
2023/01/21 13:26:46;;;;;;;;;;;1.40;99.90;;;;;;4972785;28;19985;-72
2023/01/21 13:29:17;;;;;;;;;;;1.40;99.90;;;;;;4956065;28;19927;-71
2023/01/21 13:31:47;;;;;;;;;;;1.30;99.90;;;;;;4987121;28;19977;-72
2023/01/21 13:34:19;;;;;;;;;;;1.40;99.90;;;;;;4972071;28;19934;-72
2023/01/21 13:36:51;;;;;;;;;;;1.30;99.90;;;;;;4972437;28;19930;-70
2023/01/21 13:39:22;;;;;;;;;;;1.30;99.90;;;;;;4971689;28;19948;-72
2023/01/21 13:41:56;;;;;;;;;;;1.40;99.90;;;;;;4968956;28;19926;-71
2023/01/21 13:44:54;;;;;;;;;;;1.40;99.90;;;;;;4961335;28;19927;-73
2023/01/21 13:47:25;;;;;;;;;;;1.40;99.90;;;;;;4916867;29;20434;-71
2023/01/21 13:50:05;;;;;;;;;;;1.40;99.90;;;;;;4950498;28;19961;-71
2023/01/21 13:52:37;;;;;;;;;;;1.30;99.90;;;;;;4964847;28;19931;-70
2023/01/21 13:55:15;;;;;;;;;;;1.30;99.90;;;;;;4970498;28;19997;-71
2023/01/21 13:57:46;;;;;;;;;;;1.30;99.90;;;;;;4969647;28;19927;-72
2023/01/21 14:00:15;;;;;;;;;;;1.30;99.90;;;;;;4972776;28;19926;-72
2023/01/21 14:02:46;;;;;;;;;;;1.20;99.90;;;;;;4973080;28;19926;-71
2023/01/21 14:05:16;;;;;;;;;;;1.20;99.90;;;;;;4970667;28;19966;-71
2023/01/21 14:07:45;;;;;;;;;;;1.20;99.90;;;;;;4969770;28;19926;-71
2023/01/21 14:10:15;;;;;;;;;;;1.20;99.90;;;;;;4969524;28;20025;-73
2023/01/21 14:12:56;;;;;;;;;;;1.20;99.90;;;;;;4981117;28;19981;-73
2023/01/21 14:15:32;;;;;;;;;;;1.30;99.90;;;;;;4964031;28;19930;-71
2023/01/21 14:18:12;;;;;;;;;;;1.20;99.90;;;;;;4971572;28;19926;-71
2023/01/21 14:20:49;;;;;;;;;;;1.30;99.90;;;;;;4971582;28;19926;-71
2023/01/21 14:23:25;;;;;;;;;;;1.30;99.90;;;;;;4972381;28;19996;-71
2023/01/21 14:26:02;;;;;;;;;;;1.20;99.90;;;;;;4962407;28;19934;-71
2023/01/21 14:28:33;;;;;;;;;;;1.20;99.90;;;;;;4968400;28;19926;-71
2023/01/21 14:31:03;;;;;;;;;;;1.20;99.90;;;;;;4969018;28;20351;-71
2023/01/21 14:33:35;;;;;;;;;;;1.20;99.90;;;;;;4971414;28;19926;-70
2023/01/21 14:36:07;;;;;;;;;;;1.10;99.90;;;;;;4966919;28;19989;-71
2023/01/21 14:38:38;;;;;;;;;;;1.10;99.90;;;;;;4967419;28;19984;-72
2023/01/21 14:41:06;;;;;;;;;;;1.10;99.90;;;;;;4968463;28;19938;-71
2023/01/21 14:43:52;;;;;;;;;;;1.10;99.90;;;;;;4967726;28;19930;-72
2023/01/21 14:46:23;;;;;;;;;;;1.10;99.90;;;;;;4971911;28;19926;-72
2023/01/21 14:48:55;;;;;;;;;;;1.00;99.90;;;;;;4970642;28;19926;-72
2023/01/21 14:51:25;;;;;;;;;;;1.00;99.90;;;;;;4966182;28;19929;-76
2023/01/21 14:53:56;;;;;;;;;;;1.00;99.90;;;;;;4966413;28;19926;-77
2023/01/21 14:56:25;;;;;;;;;;;1.00;99.90;;;;;;4969288;28;19969;-73
2023/01/21 14:58:53;;;;;;;;;;;1.00;99.90;;;;;;4968261;28;19926;-72
2023/01/21 15:01:25;;;;;;;;;;;1.00;99.90;;;;;;4969693;28;19926;-74
2023/01/21 15:03:52;;;;;;;;;;;1.00;99.90;;;;;;4967934;28;19933;-73
2023/01/21 15:06:21;;;;;;;;;;;0.90;99.90;;;;;;4969833;28;19930;-70
2023/01/21 15:08:51;;;;;;;;;;;0.90;99.90;;;;;;4969732;28;19981;-70
2023/01/21 15:11:20;;;;;;;;;;;0.90;99.90;;;;;;4968903;28;19953;-69
2023/01/21 15:13:47;;;;;;;;;;;0.80;99.90;;;;;;4966163;28;19934;-70
2023/01/21 15:16:16;;;;;;;;;;;0.80;99.90;;;;;;4970947;28;20389;-70
2023/01/21 15:18:47;;;;;;;;;;;0.80;99.90;;;;;;4968955;28;19934;-70
2023/01/21 15:21:33;;;;;;;;;;;0.80;99.90;;;;;;4971163;28;20405;-71
2023/01/21 15:27:14;;;;;;;;;;;0.80;99.90;;;;;;5090321;27;19938;-70
2023/01/21 15:29:41;;;;;;;;;;;0.80;99.90;;;;;;5099884;28;19982;-69
2023/01/21 15:32:20;;;;;;;;;;;0.80;99.90;;;;;;5069339;28;19971;-70
2023/01/21 15:34:48;;;;;;;;;;;0.80;99.90;;;;;;5071070;28;19933;-71
2023/01/21 15:37:17;;;;;;;;;;;0.70;99.90;;;;;;5075317;28;19982;-72
2023/01/21 15:39:43;;;;;;;;;;;0.80;99.90;;;;;;5072724;28;19924;-71
2023/01/21 15:42:18;;;;;;;;;;;0.70;99.90;;;;;;5072232;28;19928;-70
2023/01/21 15:44:50;;;;;;;;;;;0.70;99.90;;;;;;5069731;28;19960;-71
2023/01/21 15:47:24;;;;;;;;;;;0.70;99.90;;;;;;5065228;28;20399;-70
2023/01/21 15:49:55;;;;;;;;;;;0.70;99.90;;;;;;5076928;28;19924;-72
2023/01/21 15:52:29;;;;;;;;;;;0.70;99.90;;;;;;5072211;28;19971;-73
2023/01/21 15:55:02;;;;;;;;;;;0.70;99.90;;;;;;5085578;28;19931;-74
2023/01/21 15:57:36;;;;;;;;;;;0.70;99.90;;;;;;5078710;28;19963;-73
2023/01/21 16:00:12;;;;;;;;;;;0.70;99.90;;;;;;5074252;28;19979;-73
2023/01/21 16:02:47;;;;;;;;;;;0.70;99.90;;;;;;5076916;28;19960;-72
2023/01/21 16:05:20;;;;;;;;;;;0.70;99.90;;;;;;5055097;23;19929;-71
2023/01/21 16:07:52;;;;;;;;;;;0.70;99.90;;;;;;5019859;28;20137;-70
2023/01/21 16:10:21;;;;;;;;;;;0.70;99.90;;;;;;5021131;28;20466;-70
2023/01/21 16:12:52;;;;;;;;;;;0.60;99.90;;;;;;5018691;28;19935;-70
2023/01/21 16:15:25;;;;;;;;;;;0.60;99.90;;;;;;5021919;28;20008;-70
2023/01/21 16:18:05;;;;;;;;;;;0.60;99.90;;;;;;5018830;28;20017;-71
2023/01/21 16:20:32;;;;;;;;;;;0.60;99.90;;;;;;5019968;28;19965;-68
2023/01/21 16:23:00;;;;;;;;;;;0.60;99.90;;;;;;5016601;28;20482;-69
2023/01/21 16:25:27;;;;;;;;;;;0.60;99.90;;;;;;5022820;28;20017;-70
2023/01/21 16:27:55;;;;;;;;;;;0.60;99.90;;;;;;5022121;28;20351;-68
2023/01/21 16:30:25;;;;;;;;;;;0.60;99.90;;;;;;5020648;28;19933;-70
2023/01/21 16:33:07;;;;;;;;;;;0.60;99.90;;;;;;5020619;28;19979;-69
2023/01/21 16:35:41;;;;;;;;;;;0.60;99.90;;;;;;5023054;28;19980;-69
2023/01/21 16:38:07;;;;;;;;;;;0.50;99.90;;;;;;5015785;28;20434;-69
2023/01/21 16:40:34;;;;;;;;;;;0.50;99.90;;;;;;5011385;28;19929;-69
2023/01/21 16:43:11;;;;;;;;;;;0.50;99.90;;;;;;5011738;28;20454;-69
2023/01/21 16:45:39;;;;;;;;;;;0.60;99.90;;;;;;5005496;28;19937;-69
2023/01/21 16:48:06;;;;;;;;;;;0.50;99.90;;;;;;5012092;28;19971;-70
2023/01/21 16:50:32;;;;;;;;;;;0.50;99.90;;;;;;5011352;28;19929;-68
2023/01/21 16:53:04;;;;;;;;;;;0.40;99.90;;;;;;5011889;28;20347;-71
2023/01/21 16:55:31;;;;;;;;;;;0.40;99.90;;;;;;5013633;28;19929;-69
2023/01/21 16:57:58;;;;;;;;;;;0.30;99.90;;;;;;5012024;28;20348;-70
2023/01/21 17:00:29;;;;;;;;;;;0.20;99.90;;;;;;5010921;28;19925;-69
2023/01/21 17:02:56;;;;;;;;;;;0.10;99.90;;;;;;5011521;28;19926;-68
2023/01/21 17:05:23;;;;;;;;;;;0.10;99.90;;;;;;5010334;28;19925;-75
2023/01/21 17:07:52;;;;;;;;;;;0.00;99.90;;;;;;5012035;28;20016;-69
2023/01/21 17:10:20;;;;;;;;;;;0.00;99.90;;;;;;5011390;28;19925;-69
2023/01/21 17:12:48;;;;;;;;;;;0.00;99.90;;;;;;5011407;28;19988;-69
2023/01/21 17:15:17;;;;;;;;;;;0.00;99.90;;;;;;5009160;28;20019;-69
2023/01/21 17:17:46;;;;;;;;;;;0.00;99.90;;;;;;5012347;28;20434;-68
2023/01/21 17:20:35;;;;;;;;;;;0.00;99.90;;;;;;5012665;28;19926;-68
2023/01/21 17:23:04;;;;;;;;;;;0.00;99.90;;;;;;5012967;28;20462;-73
2023/01/21 17:25:30;;;;;;;;;;;-0.10;99.90;;;;;;5009137;28;20464;-74
2023/01/21 17:27:57;;;;;;;;;;;0.00;99.90;;;;;;5008028;28;20331;-73
2023/01/21 17:30:30;;;;;;;;;;;-0.10;99.90;;;;;;5005447;28;19933;-72
2023/01/21 17:32:59;;;;;;;;;;;-0.10;99.90;;;;;;5006371;28;19941;-72
2023/01/21 17:35:26;;;;;;;;;;;-0.10;99.90;;;;;;5011306;28;19932;-74
2023/01/21 17:37:54;;;;;;;;;;;-0.10;99.90;;;;;;5022897;28;19926;-75
2023/01/21 17:40:28;;;;;;;;;;;-0.20;99.90;;;;;;5005507;28;19925;-77
2023/01/21 17:42:55;;;;;;;;;;;-0.20;99.90;;;;;;5004522;28;19925;-76
2023/01/21 17:45:26;;;;;;;;;;;-0.20;99.90;;;;;;5013706;28;19929;-75
2023/01/21 17:47:53;;;;;;;;;;;-0.20;99.90;;;;;;5006608;28;19925;-70
2023/01/21 17:50:23;;;;;;;;;;;-0.20;99.90;;;;;;5001636;28;19926;-69
2023/01/21 17:52:51;;;;;;;;;;;-0.20;99.90;;;;;;5000740;28;20301;-70
2023/01/21 17:55:29;;;;;;;;;;;-0.20;99.90;;;;;;5003376;28;19929;-74
2023/01/21 17:57:56;;;;;;;;;;;-0.30;99.90;;;;;;5002929;28;19932;-72
2023/01/21 18:00:27;;;;;;;;;;;-0.30;99.90;;;;;;4998439;28;20439;-70
2023/01/21 18:02:54;;;;;;;;;;;-0.30;99.90;;;;;;5026347;28;19929;-68
2023/01/21 18:05:22;;;;;;;;;;;-0.30;99.90;;;;;;5006180;28;19925;-69
2023/01/21 18:07:49;;;;;;;;;;;-0.30;99.90;;;;;;5000241;28;19930;-69
2023/01/21 18:10:18;;;;;;;;;;;-0.40;99.90;;;;;;5002768;28;19960;-69
2023/01/21 18:12:45;;;;;;;;;;;-0.20;99.90;;;;;;5004836;28;19991;-69
2023/01/21 18:15:12;;;;;;;;;;;-0.20;99.90;;;;;;5009827;28;19925;-70
2023/01/21 18:17:42;;;;;;;;;;;-0.10;99.90;;;;;;5007589;28;19929;-69
2023/01/21 18:20:12;;;;;;;;;;;-0.10;99.90;;;;;;5009819;28;19932;-69
2023/01/21 18:22:40;;;;;;;;;;;-0.10;99.90;;;;;;5012858;28;19930;-70
2023/01/21 18:25:07;;;;;;;;;;;-0.10;99.90;;;;;;5007086;28;19925;-70
2023/01/21 18:27:34;;;;;;;;;;;-0.10;99.90;;;;;;5006455;28;19929;-69
2023/01/21 18:30:01;;;;;;;;;;;-0.20;99.90;;;;;;5004447;28;19926;-69
2023/01/21 18:32:27;;;;;;;;;;;-0.20;99.90;;;;;;5002935;28;19929;-69
2023/01/21 18:34:54;;;;;;;;;;;-0.20;99.90;;;;;;5010640;28;20356;-69
2023/01/21 18:37:21;;;;;;;;;;;-0.30;99.90;;;;;;5006849;28;19930;-69
2023/01/21 18:39:49;;;;;;;;;;;-0.30;99.90;;;;;;5005168;28;19929;-68